Time;durP1;ratioP1;P1;durP2;ratioP2;P2;SDS_P1;SDS_P2;PMS_P1;PMS_P2;Temp;Humidity;BMP_temperature;BMP_pressure;BME280_temperature;BME280_humidity;BME280_pressure;Samples;Min_cycle;Max_cycle;Signal;HPM_P1;HPM_P2
2023/02/11 00:01:34;;;;;;;;;;;;;;;1.01;82.45;102054.29;111380;1206;100113;-58
2023/02/11 00:04:00;;;;;;;;;;;;;;;1.01;82.72;102052.00;111422;1208;97658;-59
2023/02/11 00:06:26;;;;;;;;;;;;;;;1.01;82.57;102043.73;111382;1205;97562;-59
2023/02/11 00:08:52;;;;;;;;;;;;;;;1.02;82.77;102038.12;111558;1208;97757;-59
2023/02/11 00:11:18;;;;;;;;;;;;;;;1.03;82.67;102032.16;111396;1206;100037;-59
2023/02/11 00:13:44;;;;;;;;;;;;;;;1.03;82.56;102031.63;111392;1205;97674;-59
2023/02/11 00:16:11;;;;;;;;;;;;;;;1.05;82.75;102030.44;111386;1206;97639;-59
2023/02/11 00:18:36;;;;;;;;;;;;;;;1.06;82.74;102027.45;111452;1205;97767;-59
2023/02/11 00:21:08;;;;;;;;;;;;;;;1.06;82.71;102023.05;111385;1204;97673;-58
2023/02/11 00:23:34;;;;;;;;;;;;;;;1.06;82.81;102020.23;111370;1204;107763;-59
2023/02/11 00:25:59;;;;;;;;;;;;;;;1.07;82.88;102021.83;111346;1206;97646;-61
2023/02/11 00:28:24;;;;;;;;;;;;;;;1.10;82.97;102021.36;111419;1206;97764;-58
2023/02/11 00:30:56;;;;;;;;;;;;;;;1.13;82.86;102017.19;111420;1206;97550;-58
2023/02/11 00:33:22;;;;;;;;;;;;;;;1.15;83.05;102012.30;111365;1208;107875;-58
2023/02/11 00:35:48;;;;;;;;;;;;;;;1.18;83.17;102008.66;111370;1204;97584;-58
2023/02/11 00:38:13;;;;;;;;;;;;;;;1.20;83.18;102003.76;111419;1205;97596;-58
2023/02/11 00:40:39;;;;;;;;;;;;;;;1.21;82.96;102010.46;111450;1206;97625;-59
2023/02/11 00:43:04;;;;;;;;;;;;;;;1.23;83.19;102011.20;111377;1206;97708;-58
2023/02/11 00:45:29;;;;;;;;;;;;;;;1.23;82.95;102007.34;111419;1208;97675;-60
2023/02/11 00:47:55;;;;;;;;;;;;;;;1.24;83.14;102000.66;111418;1206;97718;-58
2023/02/11 00:50:20;;;;;;;;;;;;;;;1.26;83.08;101987.13;111436;1208;97653;-59
2023/02/11 00:52:45;;;;;;;;;;;;;;;1.25;83.13;101968.63;111399;1206;97710;-60
2023/02/11 00:55:10;;;;;;;;;;;;;;;1.24;83.13;101964.39;111453;1209;97646;-60
2023/02/11 00:57:35;;;;;;;;;;;;;;;1.24;83.11;101948.36;111365;1206;97629;-60
2023/02/11 01:00:01;;;;;;;;;;;;;;;1.25;82.95;101935.17;111403;1206;97632;-58
2023/02/11 01:02:26;;;;;;;;;;;;;;;1.24;83.04;101930.76;111419;1206;97589;-58
2023/02/11 01:04:51;;;;;;;;;;;;;;;1.24;83.03;101926.70;111388;1209;97572;-60
2023/02/11 01:07:17;;;;;;;;;;;;;;;1.24;83.13;101920.55;111452;1206;97681;-60
2023/02/11 01:09:42;;;;;;;;;;;;;;;1.24;82.96;101909.45;111369;1206;96854;-58
2023/02/11 01:12:07;;;;;;;;;;;;;;;1.24;82.95;101894.84;111381;1206;97672;-59
2023/02/11 01:14:32;;;;;;;;;;;;;;;1.23;83.11;101892.36;111410;1205;100356;-59
2023/02/11 01:16:57;;;;;;;;;;;;;;;1.22;82.96;101878.61;111365;1206;97757;-58
2023/02/11 01:19:22;;;;;;;;;;;;;;;1.21;83.04;101872.43;111384;1206;96468;-59
2023/02/11 01:21:48;;;;;;;;;;;;;;;1.20;82.86;101865.90;111382;1206;97595;-58
2023/02/11 01:24:13;;;;;;;;;;;;;;;1.18;83.01;101862.36;111401;1208;97725;-58
2023/02/11 01:26:38;;;;;;;;;;;;;;;1.18;82.91;101858.48;111370;1206;97674;-58
2023/02/11 01:29:03;;;;;;;;;;;;;;;1.18;82.96;101859.71;111423;1206;97613;-58
2023/02/11 01:31:29;;;;;;;;;;;;;;;1.18;82.71;101862.00;111365;1209;97668;-58
2023/02/11 01:33:54;;;;;;;;;;;;;;;1.19;82.90;101863.08;111364;1205;96864;-59
2023/02/11 01:36:20;;;;;;;;;;;;;;;1.20;83.04;101864.67;111371;1206;97575;-59
2023/02/11 01:38:45;;;;;;;;;;;;;;;1.20;82.92;101868.02;111370;1206;97861;-59
2023/02/11 01:41:11;;;;;;;;;;;;;;;1.20;82.92;101877.36;111431;1208;97622;-59
2023/02/11 01:43:40;;;;;;;;;;;;;;;1.21;82.82;101889.70;111309;1206;97642;-58
2023/02/11 01:46:11;;;;;;;;;;;;;;;1.22;82.88;101893.40;111356;1208;98061;-58
2023/02/11 01:48:37;;;;;;;;;;;;;;;1.23;82.86;101902.57;111345;1206;111308;-59
2023/02/11 01:51:07;;;;;;;;;;;;;;;1.24;82.79;101900.64;111367;1208;97665;-59
2023/02/11 01:59:04;;;;;;;;;;;;;;;1.24;82.71;101918.43;111430;1205;97601;-59
2023/02/11 02:01:31;;;;;;;;;;;;;;;1.25;82.75;101931.65;111374;1206;111831;-58
2023/02/11 02:03:59;;;;;;;;;;;;;;;1.27;82.58;101923.76;111443;1208;97579;-59
2023/02/11 02:06:32;;;;;;;;;;;;;;;1.27;82.69;101915.83;111331;1206;98001;-58
2023/02/11 02:09:05;;;;;;;;;;;;;;;1.27;82.73;101914.42;111419;1206;97672;-58
2023/02/11 02:11:30;;;;;;;;;;;;;;;1.26;82.82;101915.66;111372;1208;98017;-59
2023/02/11 02:13:56;;;;;;;;;;;;;;;1.26;82.60;101891.70;111332;1204;97670;-59
2023/02/11 02:16:25;;;;;;;;;;;;;;;1.26;82.53;101884.48;111440;1206;97674;-58
2023/02/11 02:18:50;;;;;;;;;;;;;;;1.25;82.63;101887.81;111384;1205;97603;-59
2023/02/11 02:21:34;;;;;;;;;;;;;;;1.24;82.53;101874.23;111403;1208;97679;-59
2023/02/11 02:24:18;;;;;;;;;;;;;;;1.25;82.62;101863.51;111387;1208;111692;-59
2023/02/11 02:26:58;;;;;;;;;;;;;;;1.24;82.64;101847.65;111392;1208;99895;-58
2023/02/11 02:29:27;;;;;;;;;;;;;;;1.23;82.47;101840.26;111383;1206;108032;-59
2023/02/11 02:32:10;;;;;;;;;;;;;;;1.22;82.50;101840.59;111346;1206;97575;-59
2023/02/11 02:34:40;;;;;;;;;;;;;;;1.22;82.57;101841.28;111320;1209;97729;-59
2023/02/11 02:37:26;;;;;;;;;;;;;;;1.21;82.57;101838.45;111344;1204;111472;-59
2023/02/11 02:39:51;;;;;;;;;;;;;;;1.20;82.51;101834.05;111381;1208;100207;-58
2023/02/11 02:42:17;;;;;;;;;;;;;;;1.19;82.48;101827.16;111328;1206;97581;-58
2023/02/11 02:44:49;;;;;;;;;;;;;;;1.18;82.61;101824.50;111431;1209;97761;-58
2023/02/11 02:47:15;;;;;;;;;;;;;;;1.17;82.37;101812.52;111326;1208;112304;-58
2023/02/11 02:49:40;;;;;;;;;;;;;;;1.16;82.45;101815.67;111391;1206;97697;-60
2023/02/11 02:52:28;;;;;;;;;;;;;;;1.16;82.52;101810.39;111430;1206;97587;-60
2023/02/11 02:55:09;;;;;;;;;;;;;;;1.17;82.38;101817.80;111370;1205;96137;-61
2023/02/11 02:57:41;;;;;;;;;;;;;;;1.18;82.38;101810.06;111281;1208;111650;-58
2023/02/11 03:00:06;;;;;;;;;;;;;;;1.18;82.43;101803.20;111331;1206;101318;-58
2023/02/11 03:02:40;;;;;;;;;;;;;;;1.19;82.37;101807.09;111304;1220;97688;-59
2023/02/11 03:05:05;;;;;;;;;;;;;;;1.20;82.48;101801.12;111346;1204;98017;-59
2023/02/11 03:07:30;;;;;;;;;;;;;;;1.22;82.41;101804.48;111345;1208;97705;-58
2023/02/11 03:10:01;;;;;;;;;;;;;;;1.22;82.38;101796.91;111447;1204;97568;-59
2023/02/11 03:12:29;;;;;;;;;;;;;;;1.22;82.56;101795.87;111308;1208;107699;-58
2023/02/11 03:14:54;;;;;;;;;;;;;;;1.23;82.32;101794.13;111358;1209;97680;-59
2023/02/11 03:17:20;;;;;;;;;;;;;;;1.23;82.46;101795.18;111316;1206;97702;-59
2023/02/11 03:19:47;;;;;;;;;;;;;;;1.23;82.15;101787.61;111415;1206;97677;-58
2023/02/11 03:22:16;;;;;;;;;;;;;;;1.24;82.26;101785.86;111344;1205;105824;-59
2023/02/11 03:24:42;;;;;;;;;;;;;;;1.24;82.09;101785.69;111410;1209;97572;-59
2023/02/11 03:27:23;;;;;;;;;;;;;;;1.25;82.22;101783.59;111337;1206;97668;-59
2023/02/11 03:29:53;;;;;;;;;;;;;;;1.26;82.30;101782.89;111390;1206;109870;-59
2023/02/11 03:32:30;;;;;;;;;;;;;;;1.26;82.36;101779.54;111283;1208;100202;-60
2023/02/11 03:35:02;;;;;;;;;;;;;;;1.27;82.08;101772.69;111360;1206;107240;-58
2023/02/11 03:37:32;;;;;;;;;;;;;;;1.27;82.34;101762.48;111312;1205;96888;-58
2023/02/11 03:40:00;;;;;;;;;;;;;;;1.29;82.32;101759.34;111453;1205;97575;-59
2023/02/11 03:42:29;;;;;;;;;;;;;;;1.30;82.12;101747.20;111348;1208;111100;-60
2023/02/11 03:44:57;;;;;;;;;;;;;;;1.33;82.25;101736.14;111339;1206;101402;-59
2023/02/11 03:47:24;;;;;;;;;;;;;;;1.33;82.30;101724.86;111336;1205;107719;-59
2023/02/11 03:49:50;;;;;;;;;;;;;;;1.34;82.24;101725.41;111313;1208;97687;-58
2023/02/11 03:52:17;;;;;;;;;;;;;;;1.35;82.19;101725.41;111341;1206;97569;-59
2023/02/11 03:54:44;;;;;;;;;;;;;;;1.35;82.15;101723.48;111331;1206;97577;-59
2023/02/11 03:57:10;;;;;;;;;;;;;;;1.35;82.08;101713.98;111358;1206;97578;-59
2023/02/11 04:00:01;;;;;;;;;;;;;;;1.35;82.20;101714.33;111386;1206;97590;-58
2023/02/11 04:02:29;;;;;;;;;;;;;;;1.35;82.09;101706.92;111306;1206;95020;-59
2023/02/11 04:04:54;;;;;;;;;;;;;;;1.34;81.89;101697.76;111329;1208;111632;-59
2023/02/11 04:07:19;;;;;;;;;;;;;;;1.33;82.19;101684.20;111307;1206;99159;-59
2023/02/11 04:09:44;;;;;;;;;;;;;;;1.33;81.99;101682.60;111376;1208;97716;-58
2023/02/11 04:12:09;;;;;;;;;;;;;;;1.31;81.82;101684.01;111373;1205;95505;-58
2023/02/11 04:14:35;;;;;;;;;;;;;;;1.33;81.89;101688.41;111443;1208;97703;-59
2023/02/11 04:17:00;;;;;;;;;;;;;;;1.34;82.00;101688.61;111311;1205;97574;-59
2023/02/11 04:19:25;;;;;;;;;;;;;;;1.35;81.87;101685.63;111440;1208;98260;-59
2023/02/11 04:21:50;;;;;;;;;;;;;;;1.37;81.97;101680.71;111395;1206;97732;-59
2023/02/11 04:24:16;;;;;;;;;;;;;;;1.40;82.04;101675.99;111391;1208;97658;-59
2023/02/11 04:26:41;;;;;;;;;;;;;;;1.42;82.06;101674.42;111407;1204;97533;-58
2023/02/11 04:29:06;;;;;;;;;;;;;;;1.44;82.05;101677.63;111420;1208;97704;-59
2023/02/11 04:31:32;;;;;;;;;;;;;;;1.46;81.79;101670.42;111450;1205;97680;-58
2023/02/11 04:33:57;;;;;;;;;;;;;;;1.47;82.14;101664.98;111308;1208;97658;-59
2023/02/11 04:36:22;;;;;;;;;;;;;;;1.49;81.99;101667.81;111357;1208;97639;-59
2023/02/11 04:38:47;;;;;;;;;;;;;;;1.51;82.04;101658.67;111348;1208;111863;-59
2023/02/11 04:41:12;;;;;;;;;;;;;;;1.53;81.99;101655.87;111377;1206;96341;-59
2023/02/11 04:43:38;;;;;;;;;;;;;;;1.54;82.22;101652.71;111379;1208;97591;-58
2023/02/11 04:46:03;;;;;;;;;;;;;;;1.55;82.18;101651.48;111386;1205;96021;-59
2023/02/11 04:48:28;;;;;;;;;;;;;;;1.56;82.11;101649.03;111418;1208;97680;-58
2023/02/11 04:50:53;;;;;;;;;;;;;;;1.56;82.19;101650.44;111340;1204;97623;-59
2023/02/11 04:53:19;;;;;;;;;;;;;;;1.58;82.43;101651.34;111401;1208;97700;-58
2023/02/11 04:55:46;;;;;;;;;;;;;;;1.60;82.35;101659.11;111331;1206;111074;-59
2023/02/11 04:58:12;;;;;;;;;;;;;;;1.62;82.24;101667.05;111330;1208;99975;-59
2023/02/11 05:00:37;;;;;;;;;;;;;;;1.62;82.51;101654.55;111338;1204;97584;-59
2023/02/11 05:03:02;;;;;;;;;;;;;;;1.63;82.44;101649.98;111439;1208;97600;-59
2023/02/11 05:05:27;;;;;;;;;;;;;;;1.65;82.49;101647.52;111333;1206;97519;-59
2023/02/11 05:07:52;;;;;;;;;;;;;;;1.65;82.72;101652.28;111406;1208;97590;-59
2023/02/11 05:10:18;;;;;;;;;;;;;;;1.64;82.54;101632.02;111319;1208;97645;-59
2023/02/11 05:12:43;;;;;;;;;;;;;;;1.65;82.70;101630.27;111432;1205;97706;-59
2023/02/11 05:15:08;;;;;;;;;;;;;;;1.66;82.80;101620.58;111342;1206;97569;-59
2023/02/11 05:17:33;;;;;;;;;;;;;;;1.66;82.81;101623.23;111296;1204;97750;-60
2023/02/11 05:19:58;;;;;;;;;;;;;;;1.66;82.83;101618.82;111423;1205;97588;-60
2023/02/11 05:22:24;;;;;;;;;;;;;;;1.67;83.00;101612.84;111353;1208;98181;-60
2023/02/11 05:24:49;;;;;;;;;;;;;;;1.67;83.03;101614.25;111407;1208;97600;-60
2023/02/11 05:27:14;;;;;;;;;;;;;;;1.68;83.17;101616.89;111307;1206;97571;-59
2023/02/11 05:29:39;;;;;;;;;;;;;;;1.70;83.28;101621.85;111456;1206;97763;-60
2023/02/11 05:32:06;;;;;;;;;;;;;;;1.71;83.15;101615.33;111336;1206;97684;-60
2023/02/11 05:34:31;;;;;;;;;;;;;;;1.71;83.30;101608.99;111322;1206;97706;-60
2023/02/11 05:36:56;;;;;;;;;;;;;;;1.71;83.40;101607.94;111423;1208;97607;-60
2023/02/11 05:39:21;;;;;;;;;;;;;;;1.69;83.44;101606.16;111360;1206;98020;-60
2023/02/11 05:41:47;;;;;;;;;;;;;;;1.71;83.44;101611.64;111391;1206;97672;-59
2023/02/11 05:44:12;;;;;;;;;;;;;;;1.72;83.63;101606.02;111344;1204;97559;-60
2023/02/11 05:46:37;;;;;;;;;;;;;;;1.72;83.54;101597.02;111346;1208;98016;-60
2023/02/11 05:49:02;;;;;;;;;;;;;;;1.71;83.59;101598.25;111396;1206;97677;-60
2023/02/11 05:51:28;;;;;;;;;;;;;;;1.72;83.73;101594.21;111291;1208;98017;-60
2023/02/11 05:53:53;;;;;;;;;;;;;;;1.73;83.66;101591.04;111416;1206;96659;-59
2023/02/11 05:56:18;;;;;;;;;;;;;;;1.73;83.64;101585.41;111321;1208;97809;-59
2023/02/11 05:58:43;;;;;;;;;;;;;;;1.74;83.81;101588.23;111414;1206;97578;-61
2023/02/11 06:01:08;;;;;;;;;;;;;;;1.74;83.79;101596.51;111263;1206;97558;-59
2023/02/11 06:03:34;;;;;;;;;;;;;;;1.74;83.96;101593.52;111318;1208;97668;-59
2023/02/11 06:05:59;;;;;;;;;;;;;;;1.74;83.84;101599.85;111384;1206;97555;-59
2023/02/11 06:08:25;;;;;;;;;;;;;;;1.73;83.89;101597.39;111338;1206;97696;-59
2023/02/11 06:10:50;;;;;;;;;;;;;;;1.75;84.10;101589.29;111474;1206;97574;-61
2023/02/11 06:13:17;;;;;;;;;;;;;;;1.76;84.21;101591.59;111355;1208;97681;-60
2023/02/11 06:15:42;;;;;;;;;;;;;;;1.78;84.35;101582.80;111350;1206;97575;-59
2023/02/11 06:18:08;;;;;;;;;;;;;;;1.77;84.23;101579.09;111340;1205;97731;-59
2023/02/11 06:20:33;;;;;;;;;;;;;;;1.77;84.23;101584.91;111436;1206;97553;-58
2023/02/11 06:22:59;;;;;;;;;;;;;;;1.79;84.44;101587.21;111413;1208;97693;-59
2023/02/11 06:25:24;;;;;;;;;;;;;;;1.81;84.52;101591.80;111383;1206;97607;-59
2023/02/11 06:27:49;;;;;;;;;;;;;;;1.82;84.50;101598.15;111387;1208;97674;-59
2023/02/11 06:30:15;;;;;;;;;;;;;;;1.84;84.70;101595.35;111365;1206;97584;-59
2023/02/11 06:32:40;;;;;;;;;;;;;;;1.84;84.62;101592.89;111443;1206;97733;-59
2023/02/11 06:35:05;;;;;;;;;;;;;;;1.85;84.87;101602.94;111308;1206;97641;-59
2023/02/11 06:37:32;;;;;;;;;;;;;;;1.86;84.83;101591.67;111376;1206;99059;-60
2023/02/11 06:39:57;;;;;;;;;;;;;;;1.86;84.98;101575.64;111326;1205;111700;-59
2023/02/11 06:42:22;;;;;;;;;;;;;;;1.87;85.11;101575.29;111323;1208;98202;-59
2023/02/11 06:44:47;;;;;;;;;;;;;;;1.87;85.25;101569.13;111435;1205;96770;-60
2023/02/11 06:47:13;;;;;;;;;;;;;;;1.88;85.07;101568.42;111363;1208;97678;-59
2023/02/11 06:49:38;;;;;;;;;;;;;;;1.86;85.45;101569.99;111451;1204;95512;-60
2023/02/11 06:52:03;;;;;;;;;;;;;;;1.86;85.37;101568.41;111303;1206;97581;-60
2023/02/11 06:54:28;;;;;;;;;;;;;;;1.87;85.37;101581.11;111394;1206;96462;-60
2023/02/11 06:56:53;;;;;;;;;;;;;;;1.91;85.73;101586.59;111380;1206;97743;-60
2023/02/11 06:59:22;;;;;;;;;;;;;;;1.92;85.70;101586.08;111337;1206;97553;-60
2023/02/11 07:01:47;;;;;;;;;;;;;;;1.95;85.80;101583.80;111329;1208;97677;-61
2023/02/11 07:04:13;;;;;;;;;;;;;;;1.99;85.96;101581.36;111385;1206;97584;-60
2023/02/11 07:06:39;;;;;;;;;;;;;;;2.01;85.96;101583.14;111391;1208;111869;-61
2023/02/11 07:09:04;;;;;;;;;;;;;;;2.04;86.42;101570.45;111383;1206;97587;-60
2023/02/11 07:11:30;;;;;;;;;;;;;;;2.04;86.18;101568.88;111380;1208;97610;-58
2023/02/11 07:13:58;;;;;;;;;;;;;;;2.08;86.33;101579.30;111422;1206;97600;-61
2023/02/11 07:16:24;;;;;;;;;;;;;;;2.11;86.72;101582.50;111318;1208;110736;-59
2023/02/11 07:18:49;;;;;;;;;;;;;;;2.13;86.87;101571.40;111375;1206;97253;-58
2023/02/11 07:21:16;;;;;;;;;;;;;;;2.16;87.01;101574.59;111368;1208;98027;-59
2023/02/11 07:23:42;;;;;;;;;;;;;;;2.18;86.78;101573.55;111345;1208;97791;-59
2023/02/11 07:26:08;;;;;;;;;;;;;;;2.20;86.99;101562.98;111378;1206;97594;-59
2023/02/11 07:28:34;;;;;;;;;;;;;;;2.22;87.08;101550.12;111373;1208;97575;-59
2023/02/11 07:31:04;;;;;;;;;;;;;;;2.26;87.29;101550.84;111377;1205;95996;-60
2023/02/11 07:33:29;;;;;;;;;;;;;;;2.30;87.43;101545.75;111395;1204;98015;-59
2023/02/11 07:35:54;;;;;;;;;;;;;;;2.33;87.20;101548.77;111373;1208;97790;-59
2023/02/11 07:38:19;;;;;;;;;;;;;;;2.35;87.45;101554.60;111422;1206;97575;-59
2023/02/11 07:40:45;;;;;;;;;;;;;;;2.36;87.65;101563.05;111351;1208;97598;-61
2023/02/11 07:43:10;;;;;;;;;;;;;;;2.36;87.46;101551.60;111455;1206;97575;-57
2023/02/11 07:45:37;;;;;;;;;;;;;;;2.37;87.84;101538.73;111309;1208;97657;-60
2023/02/11 07:48:02;;;;;;;;;;;;;;;2.40;87.85;101542.80;111373;1206;97572;-59
2023/02/11 07:50:27;;;;;;;;;;;;;;;2.42;87.80;101549.16;111404;1206;97626;-59
2023/02/11 07:52:53;;;;;;;;;;;;;;;2.45;87.99;101544.93;111362;1206;97610;-60
2023/02/11 07:55:18;;;;;;;;;;;;;;;2.46;88.19;101547.05;111392;1208;97688;-59
2023/02/11 07:57:43;;;;;;;;;;;;;;;2.47;88.28;101546.17;111437;1208;97583;-59
2023/02/11 08:00:09;;;;;;;;;;;;;;;2.51;88.16;101541.26;111418;1205;98289;-59
2023/02/11 08:02:34;;;;;;;;;;;;;;;2.56;88.22;101532.98;111455;1208;97702;-59
2023/02/11 08:04:59;;;;;;;;;;;;;;;2.59;88.33;101538.64;111391;1205;97697;-59
2023/02/11 08:07:24;;;;;;;;;;;;;;;2.63;88.33;101541.45;111435;1206;97673;-59
2023/02/11 08:09:50;;;;;;;;;;;;;;;2.67;88.18;101558.58;111407;1206;111354;-59
2023/02/11 08:12:15;;;;;;;;;;;;;;;2.69;88.27;101561.05;111333;1206;97709;-59
2023/02/11 08:14:40;;;;;;;;;;;;;;;2.70;88.50;101561.41;111429;1204;97571;-60
2023/02/11 08:17:05;;;;;;;;;;;;;;;2.71;88.45;101563.17;111361;1208;97989;-60
2023/02/11 08:19:31;;;;;;;;;;;;;;;2.72;88.42;101572.89;111406;1208;98286;-59
2023/02/11 08:21:56;;;;;;;;;;;;;;;2.72;88.31;101575.01;111358;1206;97667;-60
2023/02/11 08:24:22;;;;;;;;;;;;;;;2.71;88.36;101565.83;111420;1206;98020;-60
2023/02/11 08:26:47;;;;;;;;;;;;;;;2.73;88.32;101558.94;111332;1205;112389;-61
2023/02/11 08:29:13;;;;;;;;;;;;;;;2.75;88.36;101556.66;111386;1208;97677;-59
2023/02/11 08:31:40;;;;;;;;;;;;;;;2.77;88.63;101563.73;111416;1206;95025;-59
2023/02/11 08:34:05;;;;;;;;;;;;;;;2.79;88.53;101571.33;111387;1206;97597;-60
2023/02/11 08:36:32;;;;;;;;;;;;;;;2.81;88.72;101556.69;111330;1206;97749;-59
2023/02/11 08:38:58;;;;;;;;;;;;;;;2.85;88.75;101552.28;111402;1206;97585;-59
2023/02/11 08:41:24;;;;;;;;;;;;;;;2.87;88.85;101548.04;111336;1206;97793;-59
2023/02/11 08:43:49;;;;;;;;;;;;;;;2.90;88.91;101549.11;111323;1204;97368;-59
2023/02/11 08:46:15;;;;;;;;;;;;;;;2.91;88.63;101543.28;111397;1206;97672;-60
2023/02/11 08:48:41;;;;;;;;;;;;;;;2.94;88.99;101549.48;111370;1206;106934;-60
2023/02/11 08:51:07;;;;;;;;;;;;;;;2.96;88.76;101536.94;111372;1206;97623;-59
2023/02/11 08:53:32;;;;;;;;;;;;;;;2.98;88.96;101527.23;111479;1208;97699;-59
2023/02/11 08:55:58;;;;;;;;;;;;;;;3.02;88.93;101538.19;111376;1206;97578;-59
2023/02/11 08:58:23;;;;;;;;;;;;;;;3.05;88.99;101544.20;111283;1206;98849;-60
2023/02/11 09:00:48;;;;;;;;;;;;;;;3.08;88.94;101541.20;111402;1206;97674;-59
2023/02/11 09:03:14;;;;;;;;;;;;;;;3.09;88.86;101548.09;111326;1206;97694;-61
2023/02/11 09:05:43;;;;;;;;;;;;;;;3.11;88.95;101539.45;111381;1206;97585;-59
2023/02/11 09:08:09;;;;;;;;;;;;;;;3.12;89.04;101530.61;111348;1204;97808;-61
2023/02/11 09:10:34;;;;;;;;;;;;;;;3.13;88.82;101526.20;111387;1206;97568;-62
2023/02/11 09:12:59;;;;;;;;;;;;;;;3.14;88.99;101531.67;111456;1206;97642;-59
2023/02/11 09:15:25;;;;;;;;;;;;;;;3.15;89.05;101539.63;111341;1205;97644;-59
2023/02/11 09:17:50;;;;;;;;;;;;;;;3.15;89.19;101551.45;111409;1206;98909;-60
2023/02/11 09:20:15;;;;;;;;;;;;;;;3.17;89.08;101550.23;111336;1208;111399;-60
2023/02/11 09:22:41;;;;;;;;;;;;;;;3.18;88.93;101547.57;111378;1208;97549;-59
2023/02/11 09:25:06;;;;;;;;;;;;;;;3.20;89.20;101563.83;111396;1208;97686;-60
2023/02/11 09:27:31;;;;;;;;;;;;;;;3.23;89.14;101549.70;111398;1206;97549;-59
2023/02/11 09:29:56;;;;;;;;;;;;;;;3.22;88.98;101536.45;111458;1205;97687;-60
2023/02/11 09:32:21;;;;;;;;;;;;;;;3.23;88.97;101542.81;111348;1206;97569;-59
2023/02/11 09:34:47;;;;;;;;;;;;;;;3.26;89.06;101539.11;111417;1208;97771;-60
2023/02/11 09:37:12;;;;;;;;;;;;;;;3.29;89.13;101532.23;111346;1206;98050;-59
2023/02/11 09:39:37;;;;;;;;;;;;;;;3.31;89.11;101538.75;111363;1206;97677;-59
2023/02/11 09:42:02;;;;;;;;;;;;;;;3.34;89.05;101537.87;111398;1206;98791;-59
2023/02/11 09:44:30;;;;;;;;;;;;;;;3.37;89.12;101528.16;111329;1205;97633;-60
2023/02/11 09:47:14;;;;;;;;;;;;;;;3.41;89.11;101556.60;111401;1208;97565;-60
2023/02/11 09:50:08;;;;;;;;;;;;;;;3.45;89.24;101542.12;111347;1206;100259;-60
2023/02/11 09:52:45;;;;;;;;;;;;;;;3.51;89.31;101517.38;111294;1208;107900;-60
2023/02/11 09:55:17;;;;;;;;;;;;;;;3.59;89.25;101508.71;111412;1206;97843;-61
2023/02/11 09:57:42;;;;;;;;;;;;;;;3.67;89.28;101492.45;111401;1206;97699;-61
2023/02/11 10:00:19;;;;;;;;;;;;;;;3.72;89.17;101499.68;111389;1208;97986;-61
2023/02/11 10:03:07;;;;;;;;;;;;;;;3.75;89.15;101511.88;111393;1206;99742;-60
2023/02/11 10:05:41;;;;;;;;;;;;;;;3.77;89.29;101526.90;111319;1206;108805;-61
2023/02/11 10:08:25;;;;;;;;;;;;;;;3.80;89.11;101526.02;111368;1206;97640;-61
2023/02/11 10:10:51;;;;;;;;;;;;;;;3.82;88.99;101535.91;111360;1206;97667;-60
2023/02/11 10:13:22;;;;;;;;;;;;;;;3.86;89.13;101528.65;111320;1208;97689;-60
2023/02/11 10:15:57;;;;;;;;;;;;;;;3.92;89.10;101503.89;111375;1205;99707;-60
2023/02/11 10:18:34;;;;;;;;;;;;;;;4.00;89.25;101492.37;111312;1206;108071;-60
2023/02/11 10:21:02;;;;;;;;;;;;;;;4.07;89.26;101490.58;111311;1205;97570;-60
2023/02/11 10:23:33;;;;;;;;;;;;;;;4.17;89.26;101486.30;111305;1208;97639;-60
2023/02/11 10:25:59;;;;;;;;;;;;;;;4.25;89.29;101479.73;111345;1208;111084;-61
2023/02/11 10:28:34;;;;;;;;;;;;;;;4.31;89.36;101483.95;111334;1208;99408;-62
2023/02/11 10:31:02;;;;;;;;;;;;;;;4.37;89.06;101487.82;111424;1206;108038;-61
2023/02/11 10:33:51;;;;;;;;;;;;;;;4.38;89.24;101469.59;111347;1208;97831;-60
2023/02/11 10:36:17;;;;;;;;;;;;;;;4.41;89.27;101453.64;111284;1205;97607;-61
2023/02/11 10:38:42;;;;;;;;;;;;;;;4.45;89.18;101461.59;111496;1208;97591;-61
2023/02/11 10:41:29;;;;;;;;;;;;;;;4.47;89.19;101451.48;111433;1208;97571;-60
2023/02/11 10:43:55;;;;;;;;;;;;;;;4.47;89.26;101458.39;111411;1206;97795;-60
2023/02/11 10:46:28;;;;;;;;;;;;;;;4.49;89.23;101451.13;111363;1208;97706;-61
2023/02/11 10:48:53;;;;;;;;;;;;;;;4.50;89.23;101438.56;111347;1206;110504;-61
2023/02/11 10:51:19;;;;;;;;;;;;;;;4.51;89.21;101430.77;111342;1208;97684;-62
2023/02/11 10:53:45;;;;;;;;;;;;;;;4.51;89.19;101442.79;111408;1206;97529;-61
2023/02/11 10:56:13;;;;;;;;;;;;;;;4.52;89.38;101437.13;111356;1208;98013;-59
2023/02/11 10:58:45;;;;;;;;;;;;;;;4.52;89.40;101438.71;111379;1205;111849;-60
2023/02/11 11:01:12;;;;;;;;;;;;;;;4.52;89.52;101426.33;111363;1208;101024;-59
2023/02/11 11:03:48;;;;;;;;;;;;;;;4.50;89.69;101419.44;111318;1204;97571;-59
2023/02/11 11:06:14;;;;;;;;;;;;;;;4.48;89.77;101393.26;111361;1206;97709;-60
2023/02/11 11:08:39;;;;;;;;;;;;;;;4.49;89.66;101401.92;111400;1208;97674;-60
2023/02/11 11:11:07;;;;;;;;;;;;;;;4.51;89.88;101392.17;111422;1205;97719;-60
2023/02/11 11:13:40;;;;;;;;;;;;;;;4.55;90.09;101378.70;111323;1206;108086;-60
2023/02/11 11:16:12;;;;;;;;;;;;;;;4.57;90.03;101394.62;111368;1206;97687;-60
2023/02/11 11:18:37;;;;;;;;;;;;;;;4.59;90.07;101360.44;111337;1206;97057;-60
2023/02/11 11:21:07;;;;;;;;;;;;;;;4.60;90.15;101357.42;111374;1208;97585;-60
2023/02/11 11:23:35;;;;;;;;;;;;;;;4.62;90.22;101343.60;111324;1206;99972;-60
2023/02/11 11:26:03;;;;;;;;;;;;;;;4.63;90.16;101345.73;111358;1206;107818;-60
2023/02/11 11:28:30;;;;;;;;;;;;;;;4.63;90.19;101351.91;111297;1208;97687;-60
2023/02/11 11:30:55;;;;;;;;;;;;;;;4.65;90.18;101368.71;111317;1206;97575;-60
2023/02/11 11:33:26;;;;;;;;;;;;;;;4.66;90.20;101383.58;111326;1206;97680;-60
2023/02/11 11:35:56;;;;;;;;;;;;;;;4.64;90.24;101370.48;111376;1206;100595;-61
2023/02/11 11:38:23;;;;;;;;;;;;;;;4.65;90.48;101379.34;111309;1206;107761;-60
2023/02/11 11:41:08;;;;;;;;;;;;;;;4.64;90.47;101363.41;111339;1207;97694;-60
2023/02/11 11:43:36;;;;;;;;;;;;;;;4.66;90.52;101371.19;111349;1206;97556;-60
2023/02/11 11:46:01;;;;;;;;;;;;;;;4.65;90.62;101360.57;111421;1205;111623;-60
2023/02/11 11:48:31;;;;;;;;;;;;;;;4.65;90.71;101371.19;111348;1208;97613;-59
2023/02/11 11:51:09;;;;;;;;;;;;;;;4.66;90.96;101393.85;111333;1206;107795;-60
2023/02/11 11:53:53;;;;;;;;;;;;;;;4.67;91.00;101391.54;111412;1206;97636;-60
2023/02/11 11:56:23;;;;;;;;;;;;;;;4.68;91.18;101390.30;111339;1208;97593;-60
2023/02/11 11:58:49;;;;;;;;;;;;;;;4.67;91.62;101418.62;111299;1208;111231;-60
2023/02/11 12:01:22;;;;;;;;;;;;;;;4.69;91.54;101395.23;111339;1208;97661;-60
2023/02/11 12:04:06;;;;;;;;;;;;;;;4.74;91.69;101408.48;111356;1206;111180;-60
2023/02/11 12:06:31;;;;;;;;;;;;;;;4.77;91.75;101411.11;111336;1208;101165;-60
2023/02/11 12:09:06;;;;;;;;;;;;;;;4.77;91.79;101413.59;111403;1206;96264;-60
2023/02/11 12:11:50;;;;;;;;;;;;;;;4.78;91.74;101428.98;111347;1207;111251;-60
2023/02/11 12:14:22;;;;;;;;;;;;;;;4.78;91.81;101413.41;111341;1206;99336;-61
2023/02/11 12:17:00;;;;;;;;;;;;;;;4.75;91.90;101419.27;111322;1208;108792;-60
2023/02/11 12:19:31;;;;;;;;;;;;;;;4.75;92.31;101429.02;111299;1206;99038;-61
2023/02/11 12:22:11;;;;;;;;;;;;;;;4.72;92.30;101424.79;111343;1206;96128;-61
2023/02/11 12:24:52;;;;;;;;;;;;;;;4.68;92.33;101435.78;111316;1208;113114;-60
2023/02/11 12:27:41;;;;;;;;;;;;;;;4.66;92.46;101436.68;111321;1208;99677;-60
2023/02/11 12:30:26;;;;;;;;;;;;;;;4.65;92.66;101434.56;111345;1209;108530;-61
2023/02/11 12:32:51;;;;;;;;;;;;;;;4.63;92.79;101423.60;111362;1206;97697;-61
2023/02/11 12:35:25;;;;;;;;;;;;;;;4.61;92.84;101426.45;111315;1209;97719;-61
2023/02/11 12:38:09;;;;;;;;;;;;;;;4.61;92.97;101416.54;111351;1206;111467;-61
2023/02/11 12:40:34;;;;;;;;;;;;;;;4.59;93.21;101418.67;111346;1206;100453;-61
2023/02/11 12:43:19;;;;;;;;;;;;;;;4.56;93.49;101415.87;111361;1204;97712;-61
2023/02/11 12:46:04;;;;;;;;;;;;;;;4.56;93.71;101428.25;111383;1205;97561;-61